createdAt,value
2022-08-23T00:01:14.945Z,2.37
2022-08-23T00:07:17.289Z,2.60
2022-08-23T00:13:19.256Z,2.50
2022-08-23T00:19:23.055Z,2.67
2022-08-23T00:25:25.153Z,2.80
2022-08-23T00:31:27.179Z,2.80
2022-08-23T00:37:32.382Z,2.47
2022-08-23T00:44:00.149Z,2.60
2022-08-23T00:50:36.678Z,2.40
2022-08-23T00:56:40.369Z,2.20
2022-08-23T01:02:44.988Z,2.50
2022-08-23T01:08:54.571Z,2.80
2022-08-23T01:15:09.593Z,2.20
2022-08-23T01:21:53.146Z,2.57
2022-08-23T01:27:57.514Z,3.03
2022-08-23T01:34:08.085Z,2.63
2022-08-23T01:40:10.863Z,2.60
2022-08-23T01:46:20.590Z,3.00
2022-08-23T01:52:22.561Z,2.43
2022-08-23T01:58:24.942Z,2.93
2022-08-23T02:04:27.862Z,2.57
2022-08-23T02:10:29.870Z,2.67
2022-08-23T02:16:39.599Z,2.53
2022-08-23T02:22:43.808Z,3.00
2022-08-23T02:28:46.490Z,2.87
2022-08-23T02:34:51.143Z,2.60
2022-08-23T02:41:07.515Z,3.73
2022-08-23T02:47:11.899Z,2.87
2022-08-23T02:53:14.201Z,2.50
2022-08-23T02:59:16.253Z,2.83
2022-08-23T03:05:18.503Z,2.80
2022-08-23T03:11:23.339Z,3.20
2022-08-23T03:17:25.403Z,2.70
2022-08-23T03:23:27.756Z,3.00
2022-08-23T03:29:29.809Z,2.93
2022-08-23T03:35:31.909Z,3.23
2022-08-23T03:41:34.270Z,3.70
2022-08-23T03:47:36.363Z,3.23
2022-08-23T03:53:38.349Z,3.97
2022-08-23T03:59:42.600Z,3.73
2022-08-23T04:05:44.878Z,2.87
2022-08-23T04:11:46.837Z,4.00
2022-08-23T04:17:48.904Z,3.60
2022-08-23T04:23:52.751Z,3.70
2022-08-23T04:29:55.130Z,3.80
2022-08-23T04:35:57.557Z,4.07
2022-08-23T04:42:18.272Z,4.17
2022-08-23T04:48:20.231Z,3.70
2022-08-23T04:54:23.111Z,3.33
2022-08-23T05:00:28.208Z,3.40
2022-08-23T05:06:31.499Z,3.13
2022-08-23T05:12:34.366Z,4.00
2022-08-23T05:18:36.634Z,3.90
2022-08-23T05:24:38.646Z,2.80
2022-08-23T05:30:40.798Z,3.13
2022-08-23T05:36:55.933Z,3.10
2022-08-23T05:42:58.297Z,3.03
2022-08-23T05:49:00.328Z,3.50
2022-08-23T05:55:02.798Z,3.07
2022-08-23T06:01:05.097Z,2.97
2022-08-23T06:07:07.233Z,2.60
2022-08-23T06:13:09.228Z,2.80
2022-08-23T06:19:11.904Z,3.10
2022-08-23T06:25:13.886Z,2.80
2022-08-23T06:31:36.660Z,2.37
2022-08-23T06:37:39.381Z,2.93
2022-08-23T06:43:41.466Z,3.23
2022-08-23T06:49:51.095Z,2.17
2022-08-23T06:56:00.478Z,2.97
2022-08-23T07:02:06.609Z,2.30
2022-08-23T07:08:08.623Z,1.97
2022-08-23T07:14:16.271Z,1.77
2022-08-23T07:20:18.353Z,1.73
2022-08-23T07:26:21.527Z,1.87
2022-08-23T07:32:23.527Z,2.00
2022-08-23T07:38:25.533Z,1.93
2022-08-23T07:44:34.285Z,1.80
2022-08-23T07:50:36.283Z,1.53
2022-08-23T07:56:38.676Z,1.60
2022-08-23T08:02:41.215Z,1.60
2022-08-23T08:08:44.557Z,1.70
2022-08-23T08:14:48.438Z,1.90
2022-08-23T08:20:51.276Z,1.83
2022-08-23T08:26:53.385Z,2.60
2022-08-23T08:32:55.587Z,1.80
2022-08-23T08:39:00.781Z,1.70
2022-08-23T08:45:15.020Z,1.80
2022-08-23T08:51:45.367Z,1.57
2022-08-23T08:57:49.711Z,1.70
2022-08-23T09:03:52.526Z,1.57
2022-08-23T09:10:42.712Z,1.50
2022-08-23T09:16:57.592Z,1.47
2022-08-23T09:23:18.969Z,1.60
2022-08-23T09:29:33.000Z,1.57
2022-08-23T09:35:34.980Z,1.37
2022-08-23T09:41:42.148Z,1.40
2022-08-23T09:47:44.981Z,1.10
2022-08-23T09:53:51.700Z,1.10
2022-08-23T09:59:56.432Z,1.30
2022-08-23T10:06:01.559Z,0.90
2022-08-23T10:12:03.948Z,1.10
2022-08-23T10:18:51.329Z,1.20
2022-08-23T10:25:08.845Z,1.10
2022-08-23T10:31:31.402Z,1.23
2022-08-23T10:38:02.108Z,1.33
2022-08-23T10:44:46.420Z,1.10
2022-08-23T10:51:22.591Z,1.10
2022-08-23T10:57:34.189Z,1.37
2022-08-23T11:03:45.127Z,1.20
2022-08-23T11:10:05.830Z,1.20
2022-08-23T11:16:30.177Z,1.50
2022-08-23T11:22:54.538Z,1.20
2022-08-23T11:29:10.796Z,1.40
2022-08-23T11:35:43.243Z,1.47
2022-08-23T11:41:55.282Z,1.17
2022-08-23T11:48:21.907Z,1.30
2022-08-23T11:55:02.383Z,1.43
2022-08-23T12:01:13.121Z,1.17
2022-08-23T12:07:31.278Z,1.80
2022-08-23T12:14:01.618Z,1.50
2022-08-23T12:20:17.219Z,1.33
2022-08-23T12:26:47.307Z,1.30
2022-08-23T12:33:04.746Z,1.43
2022-08-23T12:39:40.230Z,1.70
2022-08-23T12:45:49.563Z,1.57
2022-08-23T12:51:54.785Z,1.60
2022-08-23T12:57:58.161Z,1.27
2022-08-23T13:04:12.818Z,1.30
2022-08-23T13:10:15.336Z,1.30
2022-08-23T13:16:38.450Z,1.60
2022-08-23T13:22:58.466Z,1.20
2022-08-23T13:29:10.043Z,1.37
2022-08-23T13:35:43.573Z,1.60
2022-08-23T13:41:46.644Z,1.40
2022-08-23T13:47:55.916Z,1.30
2022-08-23T13:54:03.734Z,1.40
2022-08-23T14:00:10.833Z,2.00
2022-08-23T14:06:13.637Z,1.37
2022-08-23T14:12:21.270Z,1.40
2022-08-23T14:18:23.504Z,1.43
2022-08-23T14:24:27.146Z,1.40
2022-08-23T14:30:34.264Z,1.37
2022-08-23T14:36:36.280Z,2.00
2022-08-23T14:42:38.341Z,1.90
2022-08-23T14:48:40.539Z,1.90
2022-08-23T14:54:43.232Z,1.60
2022-08-23T15:00:45.639Z,1.60
2022-08-23T15:07:14.139Z,2.13
2022-08-23T15:13:26.986Z,1.70
2022-08-23T15:19:30.730Z,1.90
2022-08-23T15:25:36.313Z,1.20
2022-08-23T15:31:38.343Z,1.50
2022-08-23T15:37:40.610Z,1.70
2022-08-23T15:43:45.962Z,1.73
2022-08-23T15:49:48.750Z,1.63
2022-08-23T15:55:52.015Z,1.60
2022-08-23T16:01:54.057Z,1.90
2022-08-23T16:07:58.025Z,1.40
2022-08-23T16:14:01.683Z,4.87
2022-08-23T16:20:06.402Z,1.60
2022-08-23T16:26:15.112Z,2.63
2022-08-23T16:32:17.798Z,1.50
2022-08-23T16:38:19.803Z,2.30
2022-08-23T16:44:21.902Z,1.37
2022-08-23T16:50:24.149Z,1.30
2022-08-23T16:56:26.121Z,1.60
2022-08-23T17:02:34.856Z,2.00
2022-08-23T17:08:37.446Z,1.67
2022-08-23T17:14:39.528Z,1.20
2022-08-23T17:20:42.077Z,1.93
2022-08-23T17:26:44.158Z,1.53
2022-08-23T17:32:50.483Z,1.33
2022-08-23T17:38:52.541Z,1.90
2022-08-23T17:44:54.551Z,1.70
2022-08-23T17:50:56.516Z,1.53
2022-08-23T17:57:00.652Z,1.70
2022-08-23T18:03:03.430Z,2.20
2022-08-23T18:09:06.945Z,2.10
2022-08-23T18:15:10.642Z,1.70
2022-08-23T18:21:13.037Z,1.80
2022-08-23T18:27:33.876Z,1.47
2022-08-23T18:33:38.452Z,2.00
2022-08-23T18:39:49.671Z,1.80
2022-08-23T18:45:55.219Z,1.73
2022-08-23T18:51:57.329Z,1.80
2022-08-23T18:57:59.610Z,2.30
2022-08-23T19:04:04.346Z,1.90
2022-08-23T19:10:07.144Z,1.50
2022-08-23T19:16:13.316Z,1.60
2022-08-23T19:22:15.420Z,2.80
2022-08-23T19:28:19.639Z,1.70
2022-08-23T19:34:22.859Z,1.60
2022-08-23T19:40:25.162Z,1.90
2022-08-23T19:46:27.266Z,1.73
2022-08-23T19:52:29.324Z,1.70
2022-08-23T19:58:31.634Z,1.80
2022-08-23T20:04:34.665Z,2.10
2022-08-23T20:10:36.644Z,1.70
2022-08-23T20:16:41.046Z,2.13
2022-08-23T20:23:02.675Z,1.93
2022-08-23T20:29:05.534Z,1.80
2022-08-23T20:35:11.231Z,1.63
2022-08-23T20:41:16.828Z,1.73
2022-08-23T20:47:19.325Z,1.80
2022-08-23T20:53:21.366Z,1.70
2022-08-23T20:59:24.680Z,2.27
2022-08-23T21:05:26.785Z,1.50
2022-08-23T21:11:29.837Z,1.80
2022-08-23T21:17:31.899Z,1.53
2022-08-23T21:23:35.307Z,1.73
2022-08-23T21:29:38.600Z,1.70
2022-08-23T21:35:40.600Z,2.20
2022-08-23T21:41:45.778Z,2.17
2022-08-23T21:47:47.904Z,2.20
2022-08-23T21:53:50.263Z,2.40
2022-08-23T21:59:53.173Z,1.73
2022-08-23T22:05:55.135Z,1.67
2022-08-23T22:11:58.021Z,2.40
2022-08-23T22:18:01.655Z,2.27
2022-08-23T22:24:05.476Z,2.20
2022-08-23T22:30:08.413Z,2.23
2022-08-23T22:36:20.418Z,1.90
2022-08-23T22:42:22.407Z,1.80
2022-08-23T22:48:25.946Z,2.03
2022-08-23T22:54:27.931Z,1.97
2022-08-23T23:00:29.900Z,3.03
2022-08-23T23:06:33.693Z,2.00
2022-08-23T23:12:35.685Z,2.23
2022-08-23T23:18:40.211Z,1.80
2022-08-23T23:24:42.291Z,2.30
2022-08-23T23:30:46.795Z,1.93
2022-08-23T23:36:48.836Z,2.20
2022-08-23T23:42:50.895Z,2.60
2022-08-23T23:48:53.244Z,2.10
2022-08-23T23:54:55.261Z,2.53
